createdAt,value
2022-08-07T00:00:30.624Z,65.45
2022-08-07T00:02:57.406Z,66.43
2022-08-07T00:05:26.299Z,66.43
2022-08-07T00:07:59.639Z,66.77
2022-08-07T00:10:30.747Z,67.27
2022-08-07T00:13:17.421Z,67.34
2022-08-07T00:15:52.651Z,66.62
2022-08-07T00:18:25.141Z,66.65
2022-08-07T00:21:03.500Z,65.92
2022-08-07T00:23:39.628Z,66.50
2022-08-07T00:26:18.484Z,66.90
2022-08-07T00:28:58.159Z,66.22
2022-08-07T00:31:37.679Z,66.04
2022-08-07T00:34:09.001Z,67.15
2022-08-07T00:36:43.053Z,67.25
2022-08-07T00:39:16.700Z,67.96
2022-08-07T00:42:01.702Z,67.30
2022-08-07T00:44:33.254Z,67.44
2022-08-07T00:47:02.755Z,67.22
2022-08-07T00:50:21.131Z,67.63
2022-08-07T00:52:19.870Z,67.46
2022-08-07T00:54:53.932Z,66.88
2022-08-07T00:57:26.253Z,67.31
2022-08-07T00:59:54.435Z,67.84
2022-08-07T01:02:28.550Z,67.45
2022-08-07T01:04:58.649Z,68.10
2022-08-07T01:07:29.253Z,68.62
2022-08-07T01:10:06.967Z,68.00
2022-08-07T01:12:53.082Z,67.65
2022-08-07T01:15:21.761Z,68.08
2022-08-07T01:17:48.969Z,68.26
2022-08-07T01:20:20.443Z,69.02
2022-08-07T01:23:09.099Z,69.23
2022-08-07T01:25:55.311Z,68.96
2022-08-07T01:28:24.270Z,68.66
2022-08-07T01:30:54.238Z,68.58
2022-08-07T01:33:24.818Z,68.36
2022-08-07T01:36:06.187Z,69.15
2022-08-07T01:38:33.753Z,69.34
2022-08-07T01:41:04.260Z,69.03
2022-08-07T01:43:38.344Z,69.33
2022-08-07T01:46:08.389Z,69.44
2022-08-07T01:48:46.666Z,70.15
2022-08-07T01:52:03.195Z,71.03
2022-08-07T01:54:32.549Z,70.89
2022-08-07T01:57:24.632Z,71.78
2022-08-07T02:00:03.183Z,72.10
2022-08-07T02:03:19.359Z,71.17
2022-08-07T02:05:48.613Z,70.91
2022-08-07T02:08:30.706Z,72.54
2022-08-07T02:11:01.017Z,72.14
2022-08-07T02:13:56.796Z,71.50
2022-08-07T02:16:28.753Z,72.61
2022-08-07T02:19:05.540Z,72.01
2022-08-07T02:21:56.209Z,71.44
2022-08-07T02:24:26.052Z,72.61
2022-08-07T02:27:02.555Z,72.22
2022-08-07T02:29:31.880Z,72.95
2022-08-07T02:32:03.535Z,73.14
2022-08-07T02:34:32.938Z,73.30
2022-08-07T02:37:08.200Z,73.61
2022-08-07T02:40:02.398Z,73.31
2022-08-07T02:42:32.716Z,73.09
2022-08-07T02:45:18.432Z,73.51
2022-08-07T02:47:49.908Z,73.22
2022-08-07T02:50:18.440Z,73.27
2022-08-07T02:53:00.816Z,72.94
2022-08-07T02:56:03.353Z,73.26
2022-08-07T02:58:27.192Z,72.93
2022-08-07T03:00:58.370Z,72.53
2022-08-07T03:03:49.342Z,72.31
2022-08-07T03:06:26.158Z,72.31
2022-08-07T03:09:03.822Z,72.33
2022-08-07T03:11:38.418Z,72.05
2022-08-07T03:14:07.045Z,72.38
2022-08-07T03:16:38.444Z,72.73
2022-08-07T03:19:06.132Z,73.18
2022-08-07T03:21:33.455Z,72.77
2022-08-07T03:24:19.601Z,73.19
2022-08-07T03:26:58.574Z,73.26
2022-08-07T03:29:49.653Z,73.86
2022-08-07T03:32:34.520Z,73.84
2022-08-07T03:35:17.748Z,74.13
2022-08-07T03:37:55.198Z,74.74
2022-08-07T03:40:30.675Z,74.58
2022-08-07T03:43:04.543Z,75.94
2022-08-07T03:45:43.606Z,75.53
2022-08-07T03:48:15.855Z,75.01
2022-08-07T03:50:55.662Z,74.84
2022-08-07T03:53:50.040Z,74.78
2022-08-07T03:56:33.315Z,75.51
2022-08-07T03:59:08.993Z,75.63
2022-08-07T04:01:45.756Z,75.61
2022-08-07T04:04:17.735Z,76.36
2022-08-07T04:06:46.253Z,75.44
2022-08-07T04:09:19.753Z,74.83
2022-08-07T04:12:23.896Z,75.13
2022-08-07T04:14:43.578Z,75.45
2022-08-07T04:17:20.149Z,75.11
2022-08-07T04:20:00.020Z,74.38
2022-08-07T04:22:30.167Z,74.22
2022-08-07T04:25:01.406Z,74.57
2022-08-07T04:27:36.320Z,74.76
2022-08-07T04:30:21.014Z,74.49
2022-08-07T04:32:58.126Z,74.69
2022-08-07T04:35:25.856Z,74.72
2022-08-07T04:38:02.952Z,74.31
2022-08-07T04:40:32.480Z,74.64
2022-08-07T04:43:02.180Z,75.56
2022-08-07T04:46:01.875Z,75.29
2022-08-07T04:48:38.165Z,75.45
2022-08-07T04:51:15.038Z,74.95
2022-08-07T04:54:19.518Z,74.57
2022-08-07T04:58:23.766Z,74.97
2022-08-07T05:00:30.113Z,74.36
2022-08-07T05:03:49.951Z,74.52
2022-08-07T05:07:20.692Z,74.72
2022-08-07T05:10:00.722Z,75.08
2022-08-07T05:12:38.231Z,74.65
2022-08-07T05:15:31.111Z,75.28
2022-08-07T05:18:08.765Z,75.81
2022-08-07T05:20:45.152Z,78.18
2022-08-07T05:23:19.329Z,77.28
2022-08-07T05:26:13.702Z,77.32
2022-08-07T05:28:48.498Z,77.25
2022-08-07T05:31:19.812Z,76.34
2022-08-07T05:34:04.957Z,74.33
2022-08-07T05:36:35.471Z,71.46
2022-08-07T05:40:06.571Z,69.98
2022-08-07T05:42:02.612Z,68.65
2022-08-07T05:44:37.753Z,67.75
2022-08-07T05:47:19.915Z,67.58
2022-08-07T05:49:52.740Z,66.17
2022-08-07T05:52:32.613Z,65.44
2022-08-07T05:55:10.297Z,65.13
2022-08-07T05:57:42.197Z,65.20
2022-08-07T06:00:16.480Z,64.87
2022-08-07T06:02:49.317Z,63.86
2022-08-07T06:05:19.661Z,64.09
2022-08-07T06:08:14.073Z,62.82
2022-08-07T06:10:42.579Z,61.44
2022-08-07T06:13:13.627Z,61.43
2022-08-07T06:15:43.842Z,59.45
2022-08-07T06:18:14.024Z,59.90
2022-08-07T06:20:50.980Z,59.60
2022-08-07T06:24:37.908Z,60.26
2022-08-07T06:26:20.684Z,57.99
2022-08-07T06:28:54.562Z,58.94
2022-08-07T06:31:24.266Z,57.75
2022-08-07T06:34:08.644Z,57.05
2022-08-07T06:36:36.572Z,54.54
2022-08-07T06:40:17.601Z,53.81
2022-08-07T06:42:03.574Z,53.31
2022-08-07T06:44:36.653Z,50.63
2022-08-07T06:47:12.028Z,51.18
2022-08-07T06:49:51.200Z,50.56
2022-08-07T06:52:31.705Z,49.68
2022-08-07T06:55:32.302Z,49.30
2022-08-07T06:57:59.424Z,48.45
2022-08-07T07:00:33.624Z,47.66
2022-08-07T07:03:08.928Z,48.09
2022-08-07T07:06:05.587Z,47.74
2022-08-07T07:08:29.991Z,46.31
2022-08-07T07:11:01.622Z,46.16
2022-08-07T07:13:58.075Z,45.42
2022-08-07T07:16:45.435Z,46.05
2022-08-07T07:19:55.020Z,45.98
2022-08-07T07:22:36.805Z,45.92
2022-08-07T07:26:31.084Z,45.28
2022-08-07T07:28:42.646Z,44.47
2022-08-07T07:31:10.924Z,44.96
2022-08-07T07:33:41.031Z,44.00
2022-08-07T07:36:13.333Z,44.71
2022-08-07T07:38:46.122Z,43.39
2022-08-07T07:41:21.013Z,43.69
2022-08-07T07:44:14.541Z,43.01
2022-08-07T07:46:55.213Z,42.91
2022-08-07T07:50:34.215Z,42.88
2022-08-07T07:52:18.679Z,43.41
2022-08-07T07:54:50.805Z,43.60
2022-08-07T07:57:44.372Z,41.70
2022-08-07T08:00:21.046Z,41.80
2022-08-07T08:03:06.812Z,40.36
2022-08-07T08:05:50.504Z,41.63
2022-08-07T08:08:34.509Z,41.07
2022-08-07T08:11:08.180Z,40.37
2022-08-07T08:13:53.351Z,39.17
2022-08-07T08:16:35.427Z,39.17
2022-08-07T08:19:18.199Z,40.49
2022-08-07T08:22:14.147Z,38.80
2022-08-07T08:25:24.612Z,38.70
2022-08-07T08:28:01.596Z,38.78
2022-08-07T08:30:35.100Z,38.99
2022-08-07T08:33:16.996Z,38.87
2022-08-07T08:35:49.857Z,38.53
2022-08-07T08:38:29.228Z,38.04
2022-08-07T08:41:21.592Z,37.71
2022-08-07T08:44:08.325Z,39.17
2022-08-07T08:46:53.227Z,37.55
2022-08-07T08:49:46.763Z,39.10
2022-08-07T08:52:40.852Z,37.64
2022-08-07T08:55:53.237Z,37.85
2022-08-07T08:58:47.244Z,37.43
2022-08-07T09:01:49.043Z,36.77
2022-08-07T09:04:34.836Z,37.78
2022-08-07T09:07:46.316Z,37.12
2022-08-07T09:10:57.174Z,35.39
2022-08-07T09:13:52.084Z,34.55
2022-08-07T09:17:12.398Z,34.62
2022-08-07T09:19:57.415Z,35.75
2022-08-07T09:24:32.367Z,35.07
2022-08-07T09:25:54.664Z,34.76
2022-08-07T09:30:00.712Z,34.88
2022-08-07T09:32:05.845Z,34.93
2022-08-07T09:36:04.971Z,34.44
2022-08-07T09:38:43.718Z,35.17
2022-08-07T09:41:58.432Z,34.32
2022-08-07T09:47:25.421Z,32.52
2022-08-07T09:48:15.305Z,33.79
2022-08-07T09:52:10.190Z,32.80
2022-08-07T09:54:33.781Z,35.12
2022-08-07T09:57:47.440Z,35.17
2022-08-07T10:00:20.800Z,34.68
2022-08-07T10:04:06.799Z,34.70
2022-08-07T10:07:25.785Z,34.09
2022-08-07T10:10:21.990Z,34.12
2022-08-07T10:13:55.339Z,35.15
2022-08-07T10:17:03.730Z,34.91
2022-08-07T10:20:21.946Z,34.03
2022-08-07T10:24:05.582Z,34.87
2022-08-07T10:26:53.018Z,34.31
2022-08-07T10:29:51.669Z,34.13
2022-08-07T10:33:05.804Z,33.49
2022-08-07T10:36:11.295Z,33.43
2022-08-07T10:39:12.665Z,32.67
2022-08-07T10:42:00.400Z,32.87
2022-08-07T10:45:19.393Z,31.24
2022-08-07T10:48:34.945Z,31.96
2022-08-07T10:51:39.095Z,31.69
2022-08-07T10:54:21.684Z,31.09
2022-08-07T10:57:13.865Z,30.89
2022-08-07T11:00:09.940Z,30.74
2022-08-07T11:03:14.685Z,34.12
2022-08-07T11:05:57.105Z,34.50
2022-08-07T11:08:42.546Z,33.44
2022-08-07T11:11:20.188Z,34.41
2022-08-07T11:14:44.700Z,34.73
2022-08-07T11:17:23.575Z,36.39
2022-08-07T11:20:16.160Z,35.80
2022-08-07T11:23:30.834Z,35.00
2022-08-07T11:26:31.643Z,35.17
2022-08-07T11:29:42.229Z,35.93
2022-08-07T11:32:29.331Z,33.10
2022-08-07T11:35:09.352Z,34.64
2022-08-07T11:38:10.346Z,34.77
2022-08-07T11:40:49.662Z,34.92
2022-08-07T11:43:29.484Z,34.83
2022-08-07T11:46:11.839Z,34.70
2022-08-07T11:49:50.529Z,33.92
2022-08-07T11:52:39.854Z,33.91
2022-08-07T11:56:25.546Z,33.49
2022-08-07T11:58:44.147Z,33.50
2022-08-07T12:01:59.135Z,33.96
2022-08-07T12:04:56.780Z,32.58
2022-08-07T12:07:39.108Z,33.57
2022-08-07T12:10:27.766Z,33.03
2022-08-07T12:12:59.525Z,32.32
2022-08-07T12:16:06.194Z,31.84
2022-08-07T12:18:45.699Z,32.61
2022-08-07T12:22:35.986Z,32.24
2022-08-07T12:25:08.049Z,32.38
2022-08-07T12:28:08.703Z,31.17
2022-08-07T12:30:41.290Z,32.12
2022-08-07T12:33:23.504Z,31.53
2022-08-07T12:36:02.123Z,32.27
2022-08-07T12:38:42.605Z,31.56
2022-08-07T12:41:13.170Z,31.96
2022-08-07T12:44:02.923Z,32.37
2022-08-07T12:46:57.742Z,33.12
2022-08-07T12:50:33.760Z,33.34
2022-08-07T12:53:22.223Z,34.11
2022-08-07T12:56:10.130Z,33.88
2022-08-07T12:58:42.934Z,33.40
2022-08-07T13:01:27.957Z,33.58
2022-08-07T13:04:31.711Z,32.39
2022-08-07T13:08:12.051Z,31.91
2022-08-07T13:11:06.687Z,32.04
2022-08-07T13:14:08.434Z,31.94
2022-08-07T13:17:04.630Z,31.64
2022-08-07T13:20:09.803Z,32.26
2022-08-07T13:22:52.531Z,31.28
2022-08-07T13:25:38.816Z,32.31
2022-08-07T13:28:28.800Z,32.20
2022-08-07T13:31:13.427Z,31.07
2022-08-07T13:34:31.647Z,31.72
2022-08-07T13:36:57.731Z,32.18
2022-08-07T13:40:36.577Z,31.87
2022-08-07T13:42:51.307Z,30.34
2022-08-07T13:46:11.070Z,31.19
2022-08-07T13:48:27.368Z,31.23
2022-08-07T13:51:01.931Z,31.51
2022-08-07T13:54:00.477Z,31.04
2022-08-07T13:56:36.342Z,31.27
2022-08-07T13:59:21.489Z,31.85
2022-08-07T14:02:04.861Z,31.50
2022-08-07T14:04:49.009Z,31.99
2022-08-07T14:07:22.957Z,32.20
2022-08-07T14:10:17.474Z,32.77
2022-08-07T14:12:57.830Z,34.02
2022-08-07T14:15:40.488Z,33.10
2022-08-07T14:18:28.835Z,33.56
2022-08-07T14:21:20.686Z,32.47
2022-08-07T14:24:08.698Z,32.37
2022-08-07T14:27:00.878Z,33.23
2022-08-07T14:30:06.394Z,31.87
2022-08-07T14:32:45.733Z,30.76
2022-08-07T14:35:45.514Z,31.74
2022-08-07T14:38:26.451Z,31.22
2022-08-07T14:41:15.031Z,31.65
2022-08-07T14:43:56.984Z,30.33
2022-08-07T14:46:32.405Z,30.66
2022-08-07T14:49:56.818Z,31.06
2022-08-07T14:52:12.171Z,31.04
2022-08-07T14:54:46.014Z,30.03
2022-08-07T14:57:25.209Z,30.31
2022-08-07T15:00:20.784Z,31.53
2022-08-07T15:03:18.805Z,31.06
2022-08-07T15:08:54.523Z,29.43
2022-08-07T15:11:54.258Z,29.76
2022-08-07T15:14:25.457Z,31.33
2022-08-07T15:17:02.707Z,29.76
2022-08-07T15:20:30.905Z,28.28
2022-08-07T15:22:33.459Z,29.89
2022-08-07T15:25:17.305Z,29.03
2022-08-07T15:28:32.503Z,29.12
2022-08-07T15:31:04.518Z,29.08
2022-08-07T15:33:33.404Z,28.70
2022-08-07T15:38:59.682Z,29.26
2022-08-07T15:42:43.838Z,29.73
2022-08-07T15:44:23.765Z,29.29
2022-08-07T15:47:08.907Z,28.96
2022-08-07T15:50:05.634Z,28.54
2022-08-07T15:52:39.862Z,29.22
2022-08-07T15:55:13.083Z,29.13
2022-08-07T15:57:48.711Z,28.68
2022-08-07T16:00:31.195Z,29.15
2022-08-07T16:03:21.902Z,28.79
2022-08-07T16:06:02.277Z,28.69
2022-08-07T16:08:38.740Z,28.73
2022-08-07T16:11:26.965Z,28.93
2022-08-07T16:14:11.908Z,28.60
2022-08-07T16:17:16.146Z,29.93
2022-08-07T16:20:33.030Z,29.43
2022-08-07T16:23:54.150Z,29.59
2022-08-07T16:26:16.730Z,29.82
2022-08-07T16:30:09.137Z,29.63
2022-08-07T16:32:32.911Z,30.49
2022-08-07T16:35:58.509Z,29.67
2022-08-07T16:39:00.510Z,30.67
2022-08-07T16:41:54.639Z,30.62
2022-08-07T16:45:15.410Z,30.63
2022-08-07T16:48:16.652Z,31.53
2022-08-07T16:51:51.788Z,35.12
2022-08-07T16:54:21.374Z,32.61
2022-08-07T16:58:01.752Z,32.58
2022-08-07T17:00:57.323Z,33.73
2022-08-07T17:03:59.842Z,33.31
2022-08-07T17:07:03.425Z,33.84
2022-08-07T17:10:06.939Z,32.97
2022-08-07T17:13:01.457Z,32.56
2022-08-07T17:15:50.640Z,32.65
2022-08-07T17:18:32.894Z,32.68
2022-08-07T17:21:03.808Z,32.01
2022-08-07T17:24:14.391Z,31.29
2022-08-07T17:27:03.161Z,31.63
2022-08-07T17:30:14.459Z,32.65
2022-08-07T17:34:10.162Z,31.60
2022-08-07T17:36:27.143Z,33.04
2022-08-07T17:39:57.769Z,32.21
2022-08-07T17:42:58.567Z,32.61
2022-08-07T17:45:42.239Z,32.15
2022-08-07T17:48:24.659Z,33.29
2022-08-07T17:52:00.368Z,33.95
2022-08-07T17:54:54.617Z,35.45
2022-08-07T17:57:32.104Z,34.67
2022-08-07T18:00:33.312Z,35.01
2022-08-07T18:03:25.567Z,34.30
2022-08-07T18:06:09.371Z,35.85
2022-08-07T18:09:01.885Z,35.79
2022-08-07T18:12:16.380Z,37.52
2022-08-07T18:15:22.667Z,36.85
2022-08-07T18:18:36.668Z,38.75
2022-08-07T18:21:37.132Z,39.56
2022-08-07T18:24:33.284Z,39.01
2022-08-07T18:27:39.332Z,40.08
2022-08-07T18:30:33.112Z,40.30
2022-08-07T18:33:25.723Z,39.99
2022-08-07T18:36:17.613Z,40.73
2022-08-07T18:40:07.290Z,41.69
2022-08-07T18:42:56.800Z,41.86
2022-08-07T18:46:24.553Z,39.02
2022-08-07T18:50:19.375Z,40.43
2022-08-07T18:52:52.923Z,42.92
2022-08-07T18:56:01.860Z,42.62
2022-08-07T18:58:43.076Z,42.52
2022-08-07T19:02:32.871Z,43.17
2022-08-07T19:04:57.669Z,44.10
2022-08-07T19:08:07.821Z,44.68
2022-08-07T19:10:59.476Z,44.71
2022-08-07T19:13:46.128Z,45.18
2022-08-07T19:17:07.766Z,45.28
2022-08-07T19:20:25.019Z,46.05
2022-08-07T19:23:18.718Z,46.17
2022-08-07T19:26:24.870Z,46.77
2022-08-07T19:30:56.893Z,46.03
2022-08-07T19:32:10.232Z,47.24
2022-08-07T19:34:43.908Z,47.03
2022-08-07T19:37:22.278Z,47.55
2022-08-07T19:40:02.669Z,46.96
2022-08-07T19:42:33.624Z,47.59
2022-08-07T19:46:01.161Z,47.99
2022-08-07T19:48:19.065Z,47.41
2022-08-07T19:50:54.577Z,47.83
2022-08-07T19:54:34.051Z,47.84
2022-08-07T19:58:02.228Z,48.64
2022-08-07T19:59:16.535Z,48.83
2022-08-07T20:01:57.883Z,49.04
2022-08-07T20:04:31.132Z,49.01
2022-08-07T20:07:01.115Z,49.43
2022-08-07T20:10:36.677Z,49.65
2022-08-07T20:12:34.557Z,49.74
2022-08-07T20:15:11.741Z,50.30
2022-08-07T20:18:01.282Z,50.13
2022-08-07T20:20:32.745Z,50.89
2022-08-07T20:23:22.842Z,50.81
2022-08-07T20:25:55.843Z,50.02
2022-08-07T20:28:30.717Z,50.08
2022-08-07T20:30:59.386Z,50.91
2022-08-07T20:33:36.564Z,51.16
2022-08-07T20:36:08.805Z,51.34
2022-08-07T20:38:59.601Z,52.03
2022-08-07T20:41:33.976Z,52.26
2022-08-07T20:44:02.876Z,52.31
2022-08-07T20:46:43.212Z,52.66
2022-08-07T20:49:58.311Z,52.57
2022-08-07T20:52:16.682Z,52.88
2022-08-07T20:54:53.204Z,53.11
2022-08-07T20:57:28.158Z,53.14
2022-08-07T21:00:09.198Z,53.33
2022-08-07T21:03:00.712Z,53.55
2022-08-07T21:05:51.380Z,53.78
2022-08-07T21:08:52.639Z,53.58
2022-08-07T21:11:40.024Z,54.13
2022-08-07T21:14:31.952Z,54.53
2022-08-07T21:18:02.149Z,54.64
2022-08-07T21:20:04.884Z,54.42
2022-08-07T21:22:51.288Z,54.82
2022-08-07T21:25:42.580Z,54.93
2022-08-07T21:28:48.197Z,54.70
2022-08-07T21:31:49.507Z,55.06
2022-08-07T21:34:32.305Z,55.43
2022-08-07T21:37:13.392Z,55.42
2022-08-07T21:40:07.445Z,56.24
2022-08-07T21:42:54.822Z,56.05
2022-08-07T21:46:08.153Z,56.32
2022-08-07T21:48:59.774Z,56.61
2022-08-07T21:51:32.321Z,56.53
2022-08-07T21:54:18.671Z,57.17
2022-08-07T21:57:31.496Z,57.10
2022-08-07T22:00:12.248Z,56.74
2022-08-07T22:03:31.644Z,56.96
2022-08-07T22:06:07.685Z,57.50
2022-08-07T22:09:06.947Z,57.80
2022-08-07T22:11:53.371Z,57.71
2022-08-07T22:14:38.848Z,57.87
2022-08-07T22:17:36.107Z,57.70
2022-08-07T22:20:23.995Z,58.04
2022-08-07T22:23:03.380Z,57.98
2022-08-07T22:25:45.147Z,58.16
2022-08-07T22:28:31.941Z,58.15
2022-08-07T22:31:59.346Z,58.39
2022-08-07T22:34:58.305Z,58.39
2022-08-07T22:38:04.731Z,58.67
2022-08-07T22:40:51.689Z,58.60
2022-08-07T22:43:33.934Z,58.85
2022-08-07T22:47:02.697Z,58.65
2022-08-07T22:49:37.912Z,58.67
2022-08-07T22:52:37.101Z,58.93
2022-08-07T22:55:38.492Z,58.87
2022-08-07T22:58:49.634Z,59.45
2022-08-07T23:01:42.168Z,59.02
2022-08-07T23:04:58.232Z,58.88
2022-08-07T23:08:46.175Z,59.40
2022-08-07T23:11:22.408Z,59.56
2022-08-07T23:14:16.455Z,59.47
2022-08-07T23:17:12.725Z,59.26
2022-08-07T23:20:52.827Z,59.53
2022-08-07T23:24:06.005Z,59.52
2022-08-07T23:27:33.501Z,59.85
2022-08-07T23:30:38.397Z,60.23
2022-08-07T23:34:23.416Z,60.53
2022-08-07T23:36:22.948Z,60.58
2022-08-07T23:39:04.836Z,60.89
2022-08-07T23:42:21.963Z,60.89
2022-08-07T23:45:33.121Z,61.10
2022-08-07T23:48:24.980Z,60.95
2022-08-07T23:53:16.846Z,61.08
2022-08-07T23:54:36.052Z,61.32
2022-08-07T23:57:22.217Z,61.31
